sensor_id;sensor_type;location;lat;lon;timestamp;P1;durP1;ratioP1;P2;durP2;ratioP2
47103;SDS011;32853;52.164;5.400;2022-12-07T00:01:43;6.85;;;2.28;;
47103;SDS011;32853;52.164;5.400;2022-12-07T00:04:11;8.30;;;2.50;;
47103;SDS011;32853;52.164;5.400;2022-12-07T00:06:40;7.90;;;2.92;;
47103;SDS011;32853;52.164;5.400;2022-12-07T00:18:31;4.15;;;2.28;;
47103;SDS011;32853;52.164;5.400;2022-12-07T00:24:11;7.47;;;2.67;;
47103;SDS011;32853;52.164;5.400;2022-12-07T00:29:28;10.23;;;2.78;;
47103;SDS011;32853;52.164;5.400;2022-12-07T00:31:54;5.32;;;2.70;;
47103;SDS011;32853;52.164;5.400;2022-12-07T00:34:19;10.10;;;2.65;;
47103;SDS011;32853;52.164;5.400;2022-12-07T00:36:46;5.53;;;2.30;;
47103;SDS011;32853;52.164;5.400;2022-12-07T00:39:12;3.47;;;2.10;;
47103;SDS011;32853;52.164;5.400;2022-12-07T00:41:38;7.22;;;1.95;;
47103;SDS011;32853;52.164;5.400;2022-12-07T00:44:03;18.05;;;5.85;;
47103;SDS011;32853;52.164;5.400;2022-12-07T00:46:29;13.88;;;3.15;;
47103;SDS011;32853;52.164;5.400;2022-12-07T00:48:58;9.93;;;2.40;;
47103;SDS011;32853;52.164;5.400;2022-12-07T00:51:27;6.15;;;2.22;;
47103;SDS011;32853;52.164;5.400;2022-12-07T00:53:52;6.10;;;1.95;;
47103;SDS011;32853;52.164;5.400;2022-12-07T00:56:19;4.90;;;1.67;;
47103;SDS011;32853;52.164;5.400;2022-12-07T00:59:00;9.63;;;1.95;;
47103;SDS011;32853;52.164;5.400;2022-12-07T01:01:29;7.22;;;1.67;;
47103;SDS011;32853;52.164;5.400;2022-12-07T01:04:08;6.63;;;1.85;;
47103;SDS011;32853;52.164;5.400;2022-12-07T01:06:47;4.32;;;1.77;;
47103;SDS011;32853;52.164;5.400;2022-12-07T01:09:22;13.32;;;4.53;;
47103;SDS011;32853;52.164;5.400;2022-12-07T01:11:47;5.50;;;2.00;;
47103;SDS011;32853;52.164;5.400;2022-12-07T01:14:22;6.30;;;2.58;;
47103;SDS011;32853;52.164;5.400;2022-12-07T01:16:50;9.70;;;2.13;;
47103;SDS011;32853;52.164;5.400;2022-12-07T01:19:16;7.30;;;1.95;;
47103;SDS011;32853;52.164;5.400;2022-12-07T01:21:42;6.43;;;1.90;;
47103;SDS011;32853;52.164;5.400;2022-12-07T01:24:09;7.47;;;1.92;;
47103;SDS011;32853;52.164;5.400;2022-12-07T01:26:38;5.22;;;1.52;;
47103;SDS011;32853;52.164;5.400;2022-12-07T01:29:09;8.60;;;1.70;;
47103;SDS011;32853;52.164;5.400;2022-12-07T01:31:35;4.20;;;1.75;;
47103;SDS011;32853;52.164;5.400;2022-12-07T01:34:08;6.93;;;1.70;;
47103;SDS011;32853;52.164;5.400;2022-12-07T01:36:34;5.10;;;1.60;;
47103;SDS011;32853;52.164;5.400;2022-12-07T01:39:09;6.80;;;1.50;;
47103;SDS011;32853;52.164;5.400;2022-12-07T01:41:37;2.65;;;1.10;;
47103;SDS011;32853;52.164;5.400;2022-12-07T01:52:31;10.55;;;1.30;;
47103;SDS011;32853;52.164;5.400;2022-12-07T01:55:16;5.60;;;1.52;;
47103;SDS011;32853;52.164;5.400;2022-12-07T01:57:50;5.00;;;1.67;;
47103;SDS011;32853;52.164;5.400;2022-12-07T02:00:18;8.27;;;1.50;;
47103;SDS011;32853;52.164;5.400;2022-12-07T02:02:58;5.45;;;0.93;;
47103;SDS011;32853;52.164;5.400;2022-12-07T02:05:47;5.45;;;1.25;;
47103;SDS011;32853;52.164;5.400;2022-12-07T02:08:14;8.88;;;1.35;;
47103;SDS011;32853;52.164;5.400;2022-12-07T02:10:39;7.72;;;1.70;;
47103;SDS011;32853;52.164;5.400;2022-12-07T02:24:45;1.20;;;0.80;;
47103;SDS011;32853;52.164;5.400;2022-12-07T02:30:33;6.93;;;0.98;;
47103;SDS011;32853;52.164;5.400;2022-12-07T02:33:11;6.70;;;1.45;;
47103;SDS011;32853;52.164;5.400;2022-12-07T02:35:59;8.82;;;1.08;;
47103;SDS011;32853;52.164;5.400;2022-12-07T02:43:57;4.63;;;0.90;;
47103;SDS011;32853;52.164;5.400;2022-12-07T02:46:29;3.88;;;1.20;;
47103;SDS011;32853;52.164;5.400;2022-12-07T02:48:58;4.95;;;1.38;;
47103;SDS011;32853;52.164;5.400;2022-12-07T02:51:24;4.97;;;1.08;;
47103;SDS011;32853;52.164;5.400;2022-12-07T02:53:51;2.88;;;1.23;;
47103;SDS011;32853;52.164;5.400;2022-12-07T03:05:05;8.80;;;1.30;;
47103;SDS011;32853;52.164;5.400;2022-12-07T03:13:07;3.03;;;1.00;;
47103;SDS011;32853;52.164;5.400;2022-12-07T03:18:44;5.53;;;1.58;;
47103;SDS011;32853;52.164;5.400;2022-12-07T03:21:15;8.18;;;1.42;;
47103;SDS011;32853;52.164;5.400;2022-12-07T03:23:45;2.75;;;1.08;;
47103;SDS011;32853;52.164;5.400;2022-12-07T03:26:15;5.72;;;1.00;;
47103;SDS011;32853;52.164;5.400;2022-12-07T03:28:44;9.70;;;1.02;;
47103;SDS011;32853;52.164;5.400;2022-12-07T03:31:19;4.23;;;0.83;;
47103;SDS011;32853;52.164;5.400;2022-12-07T03:33:54;5.00;;;0.75;;
47103;SDS011;32853;52.164;5.400;2022-12-07T03:36:40;2.30;;;0.73;;
47103;SDS011;32853;52.164;5.400;2022-12-07T03:41:57;6.15;;;0.93;;
47103;SDS011;32853;52.164;5.400;2022-12-07T03:44:24;3.85;;;0.60;;
47103;SDS011;32853;52.164;5.400;2022-12-07T03:47:02;3.28;;;0.68;;
47103;SDS011;32853;52.164;5.400;2022-12-07T03:49:53;4.38;;;0.65;;
47103;SDS011;32853;52.164;5.400;2022-12-07T03:52:59;4.35;;;0.90;;
47103;SDS011;32853;52.164;5.400;2022-12-07T03:55:31;7.30;;;1.00;;
47103;SDS011;32853;52.164;5.400;2022-12-07T03:58:00;4.05;;;0.93;;
47103;SDS011;32853;52.164;5.400;2022-12-07T04:00:29;3.90;;;0.88;;
47103;SDS011;32853;52.164;5.400;2022-12-07T04:02:54;4.60;;;1.00;;
47103;SDS011;32853;52.164;5.400;2022-12-07T04:05:20;4.80;;;0.80;;
47103;SDS011;32853;52.164;5.400;2022-12-07T04:07:45;8.20;;;0.90;;
47103;SDS011;32853;52.164;5.400;2022-12-07T04:10:11;2.90;;;0.93;;
47103;SDS011;32853;52.164;5.400;2022-12-07T04:15:21;4.65;;;0.80;;
47103;SDS011;32853;52.164;5.400;2022-12-07T04:17:48;5.22;;;0.80;;
47103;SDS011;32853;52.164;5.400;2022-12-07T04:20:14;1.92;;;0.52;;
47103;SDS011;32853;52.164;5.400;2022-12-07T04:22:44;4.63;;;0.75;;
47103;SDS011;32853;52.164;5.400;2022-12-07T04:25:10;3.60;;;0.60;;
47103;SDS011;32853;52.164;5.400;2022-12-07T04:27:45;6.75;;;0.88;;
47103;SDS011;32853;52.164;5.400;2022-12-07T04:30:19;5.40;;;1.02;;
47103;SDS011;32853;52.164;5.400;2022-12-07T04:32:45;5.88;;;0.77;;
47103;SDS011;32853;52.164;5.400;2022-12-07T04:35:16;5.80;;;1.10;;
47103;SDS011;32853;52.164;5.400;2022-12-07T04:37:47;9.05;;;0.77;;
47103;SDS011;32853;52.164;5.400;2022-12-07T04:40:13;1.70;;;0.98;;
47103;SDS011;32853;52.164;5.400;2022-12-07T04:42:39;3.00;;;0.60;;
47103;SDS011;32853;52.164;5.400;2022-12-07T04:45:04;3.08;;;0.50;;
47103;SDS011;32853;52.164;5.400;2022-12-07T04:47:30;2.20;;;0.50;;
47103;SDS011;32853;52.164;5.400;2022-12-07T04:49:56;4.38;;;1.13;;
47103;SDS011;32853;52.164;5.400;2022-12-07T04:52:30;3.63;;;0.95;;
47103;SDS011;32853;52.164;5.400;2022-12-07T04:54:56;2.55;;;0.57;;
47103;SDS011;32853;52.164;5.400;2022-12-07T04:57:22;1.83;;;0.63;;
47103;SDS011;32853;52.164;5.400;2022-12-07T04:59:47;5.80;;;0.70;;
47103;SDS011;32853;52.164;5.400;2022-12-07T05:02:13;5.30;;;0.63;;
47103;SDS011;32853;52.164;5.400;2022-12-07T05:04:38;7.10;;;0.63;;
47103;SDS011;32853;52.164;5.400;2022-12-07T05:07:03;4.13;;;0.77;;
47103;SDS011;32853;52.164;5.400;2022-12-07T05:09:29;5.00;;;0.77;;
47103;SDS011;32853;52.164;5.400;2022-12-07T05:11:54;2.22;;;0.40;;
47103;SDS011;32853;52.164;5.400;2022-12-07T05:14:19;2.13;;;0.50;;
47103;SDS011;32853;52.164;5.400;2022-12-07T05:16:46;2.38;;;0.50;;
47103;SDS011;32853;52.164;5.400;2022-12-07T05:19:18;6.18;;;0.38;;
47103;SDS011;32853;52.164;5.400;2022-12-07T05:21:44;2.08;;;0.60;;
47103;SDS011;32853;52.164;5.400;2022-12-07T05:24:10;3.63;;;0.47;;
47103;SDS011;32853;52.164;5.400;2022-12-07T05:29:13;7.80;;;0.40;;
47103;SDS011;32853;52.164;5.400;2022-12-07T05:31:41;3.47;;;0.60;;
47103;SDS011;32853;52.164;5.400;2022-12-07T05:34:14;3.13;;;0.40;;
47103;SDS011;32853;52.164;5.400;2022-12-07T05:36:40;0.57;;;0.13;;
47103;SDS011;32853;52.164;5.400;2022-12-07T05:39:07;3.78;;;0.52;;
47103;SDS011;32853;52.164;5.400;2022-12-07T05:41:42;5.85;;;0.45;;
47103;SDS011;32853;52.164;5.400;2022-12-07T05:44:34;2.13;;;0.10;;
47103;SDS011;32853;52.164;5.400;2022-12-07T05:47:10;4.28;;;0.30;;
47103;SDS011;32853;52.164;5.400;2022-12-07T05:49:37;4.07;;;0.38;;
47103;SDS011;32853;52.164;5.400;2022-12-07T05:52:10;11.77;;;0.40;;
47103;SDS011;32853;52.164;5.400;2022-12-07T05:54:36;2.25;;;0.30;;
47103;SDS011;32853;52.164;5.400;2022-12-07T05:57:01;3.85;;;0.38;;
47103;SDS011;32853;52.164;5.400;2022-12-07T05:59:27;1.58;;;0.75;;
47103;SDS011;32853;52.164;5.400;2022-12-07T06:01:53;11.70;;;0.57;;
47103;SDS011;32853;52.164;5.400;2022-12-07T06:07:24;2.17;;;0.47;;
47103;SDS011;32853;52.164;5.400;2022-12-07T06:09:50;4.93;;;0.60;;
47103;SDS011;32853;52.164;5.400;2022-12-07T06:12:15;4.15;;;0.52;;
47103;SDS011;32853;52.164;5.400;2022-12-07T06:14:58;3.92;;;0.60;;
47103;SDS011;32853;52.164;5.400;2022-12-07T06:17:24;2.50;;;0.47;;
47103;SDS011;32853;52.164;5.400;2022-12-07T06:19:50;8.48;;;1.13;;
47103;SDS011;32853;52.164;5.400;2022-12-07T06:22:15;4.93;;;0.85;;
47103;SDS011;32853;52.164;5.400;2022-12-07T06:24:41;2.40;;;0.80;;
47103;SDS011;32853;52.164;5.400;2022-12-07T06:27:07;6.05;;;0.70;;
47103;SDS011;32853;52.164;5.400;2022-12-07T06:29:33;2.10;;;0.75;;
47103;SDS011;32853;52.164;5.400;2022-12-07T06:32:02;2.05;;;0.50;;
47103;SDS011;32853;52.164;5.400;2022-12-07T06:34:32;8.70;;;0.60;;
47103;SDS011;32853;52.164;5.400;2022-12-07T06:36:59;3.08;;;1.15;;
47103;SDS011;32853;52.164;5.400;2022-12-07T06:39:25;3.03;;;0.73;;
47103;SDS011;32853;52.164;5.400;2022-12-07T06:41:52;5.40;;;0.60;;
47103;SDS011;32853;52.164;5.400;2022-12-07T06:44:23;3.00;;;0.55;;
47103;SDS011;32853;52.164;5.400;2022-12-07T06:46:50;5.10;;;0.95;;
47103;SDS011;32853;52.164;5.400;2022-12-07T06:49:16;1.27;;;0.65;;
47103;SDS011;32853;52.164;5.400;2022-12-07T06:51:41;5.93;;;0.95;;
47103;SDS011;32853;52.164;5.400;2022-12-07T06:54:08;9.85;;;0.70;;
47103;SDS011;32853;52.164;5.400;2022-12-07T06:56:39;3.90;;;0.50;;
47103;SDS011;32853;52.164;5.400;2022-12-07T06:59:05;4.78;;;0.85;;
47103;SDS011;32853;52.164;5.400;2022-12-07T07:01:34;7.18;;;0.80;;
47103;SDS011;32853;52.164;5.400;2022-12-07T07:04:00;4.45;;;0.80;;
47103;SDS011;32853;52.164;5.400;2022-12-07T07:06:32;3.60;;;0.88;;
47103;SDS011;32853;52.164;5.400;2022-12-07T07:08:58;5.70;;;0.87;;
47103;SDS011;32853;52.164;5.400;2022-12-07T07:11:24;8.93;;;0.68;;
47103;SDS011;32853;52.164;5.400;2022-12-07T07:13:49;6.65;;;0.73;;
47103;SDS011;32853;52.164;5.400;2022-12-07T07:16:14;2.15;;;0.60;;
47103;SDS011;32853;52.164;5.400;2022-12-07T07:18:40;5.63;;;0.65;;
47103;SDS011;32853;52.164;5.400;2022-12-07T07:21:05;9.23;;;0.77;;
47103;SDS011;32853;52.164;5.400;2022-12-07T07:23:39;7.95;;;0.80;;
47103;SDS011;32853;52.164;5.400;2022-12-07T07:26:04;1.65;;;0.73;;
47103;SDS011;32853;52.164;5.400;2022-12-07T07:28:29;7.60;;;1.00;;
47103;SDS011;32853;52.164;5.400;2022-12-07T07:30:55;9.70;;;1.70;;
47103;SDS011;32853;52.164;5.400;2022-12-07T07:33:24;1.55;;;0.70;;
47103;SDS011;32853;52.164;5.400;2022-12-07T07:35:50;6.85;;;0.75;;
47103;SDS011;32853;52.164;5.400;2022-12-07T07:38:15;7.50;;;0.85;;
47103;SDS011;32853;52.164;5.400;2022-12-07T07:40:40;9.48;;;0.90;;
47103;SDS011;32853;52.164;5.400;2022-12-07T07:43:06;5.28;;;1.10;;
47103;SDS011;32853;52.164;5.400;2022-12-07T07:45:31;2.33;;;1.00;;
47103;SDS011;32853;52.164;5.400;2022-12-07T07:47:57;2.58;;;0.70;;
47103;SDS011;32853;52.164;5.400;2022-12-07T07:50:22;6.32;;;0.82;;
47103;SDS011;32853;52.164;5.400;2022-12-07T07:52:47;6.38;;;1.38;;
47103;SDS011;32853;52.164;5.400;2022-12-07T07:55:26;5.18;;;1.00;;
47103;SDS011;32853;52.164;5.400;2022-12-07T07:57:54;5.78;;;1.60;;
47103;SDS011;32853;52.164;5.400;2022-12-07T08:00:26;5.07;;;1.10;;
47103;SDS011;32853;52.164;5.400;2022-12-07T08:02:52;4.28;;;1.20;;
47103;SDS011;32853;52.164;5.400;2022-12-07T08:05:30;6.13;;;1.40;;
47103;SDS011;32853;52.164;5.400;2022-12-07T08:10:24;4.00;;;0.77;;
47103;SDS011;32853;52.164;5.400;2022-12-07T08:15:43;4.85;;;1.15;;
47103;SDS011;32853;52.164;5.400;2022-12-07T08:18:24;3.65;;;1.42;;
47103;SDS011;32853;52.164;5.400;2022-12-07T08:20:50;1.52;;;1.02;;
47103;SDS011;32853;52.164;5.400;2022-12-07T08:23:17;2.83;;;1.00;;
47103;SDS011;32853;52.164;5.400;2022-12-07T08:26:02;5.80;;;1.00;;
47103;SDS011;32853;52.164;5.400;2022-12-07T08:28:29;3.45;;;1.25;;
47103;SDS011;32853;52.164;5.400;2022-12-07T08:31:08;7.60;;;1.55;;
47103;SDS011;32853;52.164;5.400;2022-12-07T08:33:37;2.27;;;0.97;;
47103;SDS011;32853;52.164;5.400;2022-12-07T08:36:04;11.15;;;1.65;;
47103;SDS011;32853;52.164;5.400;2022-12-07T08:38:44;2.58;;;1.13;;
47103;SDS011;32853;52.164;5.400;2022-12-07T08:41:19;7.30;;;1.38;;
47103;SDS011;32853;52.164;5.400;2022-12-07T08:43:53;6.38;;;1.30;;
47103;SDS011;32853;52.164;5.400;2022-12-07T08:49:39;5.30;;;0.93;;
47103;SDS011;32853;52.164;5.400;2022-12-07T08:52:14;5.38;;;1.15;;
47103;SDS011;32853;52.164;5.400;2022-12-07T08:54:40;14.02;;;1.48;;
47103;SDS011;32853;52.164;5.400;2022-12-07T08:57:06;2.25;;;0.90;;
47103;SDS011;32853;52.164;5.400;2022-12-07T08:59:38;2.55;;;0.70;;
47103;SDS011;32853;52.164;5.400;2022-12-07T09:02:16;3.47;;;0.77;;
47103;SDS011;32853;52.164;5.400;2022-12-07T09:04:51;4.05;;;0.93;;
47103;SDS011;32853;52.164;5.400;2022-12-07T09:07:17;3.20;;;1.20;;
47103;SDS011;32853;52.164;5.400;2022-12-07T09:12:29;2.72;;;1.10;;
47103;SDS011;32853;52.164;5.400;2022-12-07T09:15:01;3.65;;;0.70;;
47103;SDS011;32853;52.164;5.400;2022-12-07T09:22:33;16.65;;;4.10;;
47103;SDS011;32853;52.164;5.400;2022-12-07T09:24:59;12.25;;;2.25;;
47103;SDS011;32853;52.164;5.400;2022-12-07T09:30:22;2.17;;;0.80;;
47103;SDS011;32853;52.164;5.400;2022-12-07T09:32:47;10.38;;;0.93;;
47103;SDS011;32853;52.164;5.400;2022-12-07T09:35:17;2.08;;;0.88;;
47103;SDS011;32853;52.164;5.400;2022-12-07T09:37:44;4.80;;;0.60;;
47103;SDS011;32853;52.164;5.400;2022-12-07T09:40:09;4.55;;;0.82;;
47103;SDS011;32853;52.164;5.400;2022-12-07T09:42:39;2.42;;;0.60;;
47103;SDS011;32853;52.164;5.400;2022-12-07T09:45:21;8.65;;;0.98;;
47103;SDS011;32853;52.164;5.400;2022-12-07T09:47:48;2.67;;;0.82;;
47103;SDS011;32853;52.164;5.400;2022-12-07T09:50:15;6.70;;;0.90;;
47103;SDS011;32853;52.164;5.400;2022-12-07T09:52:44;2.70;;;0.95;;
47103;SDS011;32853;52.164;5.400;2022-12-07T09:55:12;3.13;;;0.95;;
47103;SDS011;32853;52.164;5.400;2022-12-07T09:57:39;4.13;;;0.57;;
47103;SDS011;32853;52.164;5.400;2022-12-07T10:00:16;4.30;;;0.88;;
47103;SDS011;32853;52.164;5.400;2022-12-07T10:05:41;7.10;;;0.90;;
47103;SDS011;32853;52.164;5.400;2022-12-07T10:08:13;2.20;;;0.80;;
47103;SDS011;32853;52.164;5.400;2022-12-07T10:10:41;2.13;;;0.75;;
47103;SDS011;32853;52.164;5.400;2022-12-07T10:13:13;2.50;;;0.70;;
47103;SDS011;32853;52.164;5.400;2022-12-07T10:15:41;1.38;;;0.73;;
47103;SDS011;32853;52.164;5.400;2022-12-07T10:18:26;2.35;;;0.85;;
47103;SDS011;32853;52.164;5.400;2022-12-07T10:23:36;7.22;;;1.23;;
47103;SDS011;32853;52.164;5.400;2022-12-07T10:29:15;2.75;;;1.02;;
47103;SDS011;32853;52.164;5.400;2022-12-07T10:31:43;6.03;;;1.10;;
47103;SDS011;32853;52.164;5.400;2022-12-07T10:34:24;3.50;;;0.68;;
47103;SDS011;32853;52.164;5.400;2022-12-07T10:36:52;13.77;;;0.53;;
47103;SDS011;32853;52.164;5.400;2022-12-07T10:39:20;3.75;;;0.70;;
47103;SDS011;32853;52.164;5.400;2022-12-07T10:42:15;4.15;;;0.50;;
47103;SDS011;32853;52.164;5.400;2022-12-07T10:56:02;7.20;;;0.85;;
47103;SDS011;32853;52.164;5.400;2022-12-07T10:59:35;3.38;;;0.80;;
47103;SDS011;32853;52.164;5.400;2022-12-07T11:04:43;1.15;;;0.52;;
47103;SDS011;32853;52.164;5.400;2022-12-07T11:10:50;7.90;;;1.05;;
47103;SDS011;32853;52.164;5.400;2022-12-07T11:16:00;6.78;;;0.70;;
47103;SDS011;32853;52.164;5.400;2022-12-07T11:24:20;3.70;;;0.65;;
47103;SDS011;32853;52.164;5.400;2022-12-07T11:26:59;1.80;;;0.70;;
47103;SDS011;32853;52.164;5.400;2022-12-07T11:29:47;4.32;;;0.93;;
47103;SDS011;32853;52.164;5.400;2022-12-07T11:32:31;4.65;;;0.82;;
47103;SDS011;32853;52.164;5.400;2022-12-07T11:37:55;1.75;;;0.55;;
47103;SDS011;32853;52.164;5.400;2022-12-07T11:40:37;4.38;;;1.05;;
47103;SDS011;32853;52.164;5.400;2022-12-07T12:13:56;3.83;;;0.60;;
47103;SDS011;32853;52.164;5.400;2022-12-07T12:23:01;6.63;;;0.80;;
47103;SDS011;32853;52.164;5.400;2022-12-07T12:25:35;3.90;;;0.77;;
47103;SDS011;32853;52.164;5.400;2022-12-07T12:33:43;2.63;;;0.60;;
